createdAt,value
2019-03-05T00:01:51.016Z,99665.69
2019-03-05T00:04:19.688Z,99659.52
2019-03-05T00:06:48.450Z,99667.92
2019-03-05T00:09:19.113Z,99672.53
2019-03-05T00:11:48.098Z,99678.38
2019-03-05T00:14:18.875Z,99681.34
2019-03-05T00:16:47.776Z,99698.16
2019-03-05T00:19:16.523Z,99685.77
2019-03-05T00:21:45.710Z,99690.17
2019-03-05T00:24:51.057Z,99682.98
2019-03-05T00:27:19.966Z,99684.66
2019-03-05T00:30:00.656Z,99679.41
2019-03-05T00:32:29.658Z,99690.80
2019-03-05T00:35:07.988Z,99691.59
2019-03-05T00:37:40.330Z,99698.02
2019-03-05T00:40:12.680Z,99698.23
2019-03-05T00:43:01.152Z,99699.73
2019-03-05T00:45:35.879Z,99695.48
2019-03-05T00:48:31.950Z,99690.03
2019-03-05T00:51:30.066Z,99688.41
2019-03-05T00:54:27.607Z,99687.47
2019-03-05T00:57:05.099Z,99687.87
2019-03-05T00:59:48.396Z,99688.27
2019-03-05T01:02:29.424Z,99688.20
2019-03-05T01:05:19.700Z,99693.89
2019-03-05T01:07:48.700Z,99685.56
2019-03-05T01:10:17.745Z,99683.87
2019-03-05T01:12:46.515Z,99685.63
2019-03-05T01:15:15.698Z,99687.27
2019-03-05T01:17:44.324Z,99679.60
2019-03-05T01:20:13.535Z,99684.31
2019-03-05T01:22:42.204Z,99699.06
2019-03-05T01:25:22.569Z,99696.14
2019-03-05T01:27:51.152Z,99698.06
2019-03-05T01:30:28.868Z,99692.36
2019-03-05T01:32:59.457Z,99689.14
2019-03-05T01:35:30.131Z,99690.59
2019-03-05T01:37:59.099Z,99696.36
2019-03-05T01:40:32.330Z,99693.47
2019-03-05T01:43:01.203Z,99693.48
2019-03-05T01:45:30.212Z,99697.31
2019-03-05T01:47:59.207Z,99700.34
2019-03-05T01:50:27.636Z,99694.73
2019-03-05T01:52:56.480Z,99693.16
2019-03-05T01:55:24.874Z,99696.56
2019-03-05T01:57:53.827Z,99695.00
2019-03-05T02:00:22.947Z,99703.39
2019-03-05T02:02:51.919Z,99705.38
2019-03-05T02:05:21.037Z,99700.66
2019-03-05T02:07:50.108Z,99695.42
2019-03-05T02:10:20.970Z,99691.25
2019-03-05T02:12:49.923Z,99686.87
2019-03-05T02:15:18.936Z,99697.03
2019-03-05T02:17:47.935Z,99687.92
2019-03-05T02:20:24.566Z,99683.78
2019-03-05T02:22:56.274Z,99691.49
2019-03-05T02:25:31.208Z,99688.22
2019-03-05T02:28:18.031Z,99692.89
2019-03-05T02:30:55.822Z,99701.34
2019-03-05T02:33:51.920Z,99691.67
2019-03-05T02:36:32.374Z,99695.16
2019-03-05T02:39:37.045Z,99694.41
2019-03-05T02:42:27.540Z,99695.64
2019-03-05T02:45:24.794Z,99692.66
2019-03-05T02:48:02.338Z,99697.32
2019-03-05T02:50:45.991Z,99709.16
2019-03-05T02:53:20.390Z,99702.30
2019-03-05T02:56:08.257Z,99700.50
2019-03-05T02:58:35.653Z,99707.15
2019-03-05T03:01:21.529Z,99722.11
2019-03-05T03:03:58.199Z,99718.45
2019-03-05T03:06:28.408Z,99712.09
2019-03-05T03:09:18.654Z,99703.09
2019-03-05T03:11:47.098Z,99713.67
2019-03-05T03:14:15.743Z,99711.77
2019-03-05T03:16:44.630Z,99702.38
2019-03-05T03:19:13.093Z,99702.27
2019-03-05T03:21:42.184Z,99708.51
2019-03-05T03:24:21.529Z,99712.81
2019-03-05T03:26:50.453Z,99722.15
2019-03-05T03:29:19.459Z,99721.00
2019-03-05T03:31:48.147Z,99726.22
2019-03-05T03:34:16.777Z,99730.09
2019-03-05T03:36:45.523Z,99740.55
2019-03-05T03:39:14.645Z,99738.86
2019-03-05T03:41:43.112Z,99730.81
2019-03-05T03:44:12.612Z,99733.31
2019-03-05T03:46:41.357Z,99735.11
2019-03-05T03:49:09.919Z,99737.38
2019-03-05T03:51:38.527Z,99733.30
2019-03-05T03:54:07.113Z,99726.22
2019-03-05T03:56:36.123Z,99733.71
2019-03-05T03:59:05.078Z,99737.99
2019-03-05T04:01:34.109Z,99727.23
2019-03-05T04:04:03.249Z,99739.89
2019-03-05T04:06:32.127Z,99738.62
2019-03-05T04:09:00.978Z,99746.52
2019-03-05T04:11:29.912Z,99741.56
2019-03-05T04:13:59.821Z,99737.19
2019-03-05T04:16:28.982Z,99744.20
2019-03-05T04:18:59.722Z,99746.39
2019-03-05T04:21:28.649Z,99748.81
2019-03-05T04:23:57.588Z,99749.86
2019-03-05T04:26:26.012Z,99745.73
2019-03-05T04:28:55.215Z,99746.75
2019-03-05T04:31:23.679Z,99746.97
2019-03-05T04:33:52.655Z,99754.44
2019-03-05T04:36:21.458Z,99754.17
2019-03-05T04:38:49.997Z,99761.23
2019-03-05T04:41:18.602Z,99772.72
2019-03-05T04:43:47.166Z,99765.27
2019-03-05T04:46:20.942Z,99762.17
2019-03-05T04:48:51.295Z,99758.46
2019-03-05T04:51:21.521Z,99753.10
2019-03-05T04:53:49.936Z,99760.38
2019-03-05T04:56:18.470Z,99760.36
2019-03-05T04:58:46.982Z,99758.56
2019-03-05T05:01:15.674Z,99758.21
2019-03-05T05:03:44.637Z,99758.38
2019-03-05T05:06:13.695Z,99761.95
2019-03-05T05:08:42.119Z,99759.90
2019-03-05T05:11:10.553Z,99767.66
2019-03-05T05:13:38.992Z,99770.85
2019-03-05T05:16:07.384Z,99773.80
2019-03-05T05:18:35.903Z,99780.58
2019-03-05T05:21:04.453Z,99775.80
2019-03-05T05:23:33.033Z,99778.48
2019-03-05T05:26:02.101Z,99781.22
2019-03-05T05:28:30.513Z,99782.38
2019-03-05T05:30:59.501Z,99779.44
2019-03-05T05:33:28.074Z,99772.02
2019-03-05T05:35:56.531Z,99772.11
2019-03-05T05:38:24.985Z,99767.06
2019-03-05T05:40:53.384Z,99774.05
2019-03-05T05:43:27.725Z,99782.06
2019-03-05T05:45:56.513Z,99776.41
2019-03-05T05:48:25.688Z,99771.95
2019-03-05T05:50:54.137Z,99780.32
2019-03-05T05:53:22.552Z,99776.64
2019-03-05T05:55:51.037Z,99779.40
2019-03-05T05:58:19.540Z,99785.17
2019-03-05T06:00:50.329Z,99781.61
2019-03-05T06:03:18.851Z,99778.69
2019-03-05T06:05:47.347Z,99772.36
2019-03-05T06:08:15.859Z,99767.11
2019-03-05T06:10:45.381Z,99765.62
2019-03-05T06:13:14.516Z,99779.65
2019-03-05T06:15:43.905Z,99770.20
2019-03-05T06:18:12.512Z,99769.73
2019-03-05T06:20:42.693Z,99770.77
2019-03-05T06:23:11.890Z,99768.97
2019-03-05T06:25:40.286Z,99773.13
2019-03-05T06:28:08.852Z,99778.07
2019-03-05T06:30:40.234Z,99776.75
2019-03-05T06:33:08.748Z,99778.84
2019-03-05T06:35:37.182Z,99774.33
2019-03-05T06:38:05.881Z,99777.96
2019-03-05T06:40:35.009Z,99771.20
2019-03-05T06:43:03.429Z,99770.60
2019-03-05T06:45:32.043Z,99765.96
2019-03-05T06:48:06.167Z,99776.82
2019-03-05T06:50:35.421Z,99771.55
2019-03-05T06:53:03.936Z,99775.64
2019-03-05T06:55:32.719Z,99782.16
2019-03-05T06:58:01.203Z,99779.55
2019-03-05T07:00:35.967Z,99783.00
2019-03-05T07:03:06.098Z,99787.30
2019-03-05T07:06:10.971Z,99783.41
2019-03-05T07:08:42.874Z,99772.78
2019-03-05T07:11:20.327Z,99777.23
2019-03-05T07:13:50.546Z,99780.59
2019-03-05T07:16:37.551Z,99792.99
2019-03-05T07:19:06.621Z,99783.47
2019-03-05T07:21:59.809Z,99793.31
2019-03-05T07:24:43.716Z,99794.52
2019-03-05T07:27:13.473Z,99789.31
2019-03-05T07:29:41.952Z,99791.35
2019-03-05T07:32:10.665Z,99790.08
2019-03-05T07:34:40.711Z,99789.28
2019-03-05T07:37:10.812Z,99785.83
2019-03-05T07:39:39.547Z,99784.42
2019-03-05T07:42:08.018Z,99790.70
2019-03-05T07:44:36.426Z,99791.50
2019-03-05T07:47:05.070Z,99785.97
2019-03-05T07:49:43.338Z,99790.08
2019-03-05T07:52:04.479Z,99786.77
2019-03-05T07:54:33.292Z,99790.97
2019-03-05T07:57:01.846Z,99781.56
2019-03-05T07:59:30.702Z,99792.89
2019-03-05T08:01:59.518Z,99795.95
2019-03-05T08:04:28.648Z,99789.48
2019-03-05T08:06:57.267Z,99793.65
2019-03-05T08:09:34.833Z,99800.97
2019-03-05T08:12:07.103Z,99803.42
2019-03-05T08:15:00.452Z,99802.97
2019-03-05T08:17:29.455Z,99805.83
2019-03-05T08:19:58.332Z,99803.34
2019-03-05T08:22:27.574Z,99807.28
2019-03-05T08:24:56.334Z,99812.44
2019-03-05T08:27:25.242Z,99818.72
2019-03-05T08:29:54.143Z,99825.63
2019-03-05T08:32:23.207Z,99839.41
2019-03-05T08:34:51.766Z,99829.52
2019-03-05T08:37:20.295Z,99845.62
2019-03-05T08:39:49.038Z,99839.80
2019-03-05T08:42:17.852Z,99834.27
2019-03-05T08:44:50.606Z,99836.09
2019-03-05T08:47:17.641Z,99835.46
2019-03-05T08:49:46.481Z,99828.89
2019-03-05T08:52:15.248Z,99824.02
2019-03-05T08:54:45.461Z,99832.56
2019-03-05T08:57:14.607Z,99827.22
2019-03-05T08:59:43.447Z,99820.33
2019-03-05T09:02:12.311Z,99819.30
2019-03-05T09:04:41.263Z,99817.98
2019-03-05T09:07:10.095Z,99808.73
2019-03-05T09:09:39.199Z,99821.16
2019-03-05T09:12:07.959Z,99818.41
2019-03-05T09:14:36.766Z,99837.04
2019-03-05T09:17:05.641Z,99823.87
2019-03-05T09:19:34.420Z,99826.30
2019-03-05T09:22:03.573Z,99839.39
2019-03-05T09:24:32.260Z,99837.38
2019-03-05T09:27:01.043Z,99835.78
2019-03-05T09:29:29.851Z,99842.09
2019-03-05T09:31:58.697Z,99841.48
2019-03-05T09:34:27.612Z,99838.66
2019-03-05T09:36:56.765Z,99849.67
2019-03-05T09:39:25.479Z,99843.50
2019-03-05T09:41:54.382Z,99851.02
2019-03-05T09:44:23.382Z,99845.86
2019-03-05T09:46:52.192Z,99847.23
2019-03-05T09:49:21.088Z,99852.12
2019-03-05T09:51:49.940Z,99846.02
2019-03-05T09:54:18.900Z,99846.84
2019-03-05T09:56:47.694Z,99866.53
2019-03-05T09:59:16.576Z,99855.96
2019-03-05T10:01:47.451Z,99861.08
2019-03-05T10:04:15.918Z,99864.72
2019-03-05T10:06:44.735Z,99867.38
2019-03-05T10:09:13.337Z,99865.83
2019-03-05T10:11:42.470Z,99862.88
2019-03-05T10:14:11.558Z,99855.73
2019-03-05T10:16:40.245Z,99838.95
2019-03-05T10:19:08.905Z,99851.34
2019-03-05T10:21:45.797Z,99849.98
2019-03-05T10:24:10.856Z,99848.55
2019-03-05T10:26:39.009Z,99852.60
2019-03-05T10:29:07.846Z,99848.98
2019-03-05T10:31:36.652Z,99853.91
2019-03-05T10:34:05.459Z,99852.99
2019-03-05T10:36:34.142Z,99854.41
2019-03-05T10:39:03.092Z,99857.40
2019-03-05T10:41:31.800Z,99848.48
2019-03-05T10:44:00.636Z,99854.38
2019-03-05T10:46:29.396Z,99848.27
2019-03-05T10:48:58.555Z,99847.77
2019-03-05T10:51:27.815Z,99833.05
2019-03-05T10:53:57.148Z,99843.41
2019-03-05T10:56:26.045Z,99838.56
2019-03-05T10:58:54.857Z,99831.20
2019-03-05T11:01:26.775Z,99836.41
2019-03-05T11:03:56.450Z,99826.89
2019-03-05T11:06:25.301Z,99830.70
2019-03-05T11:08:53.842Z,99828.20
2019-03-05T11:11:22.858Z,99833.89
2019-03-05T11:13:51.830Z,99818.33
2019-03-05T11:16:30.405Z,99828.00
2019-03-05T11:18:51.366Z,99831.67
2019-03-05T11:21:20.099Z,99823.48
2019-03-05T11:23:48.841Z,99831.00
2019-03-05T11:26:17.754Z,99832.52
2019-03-05T11:28:46.620Z,99818.81
2019-03-05T11:31:15.679Z,99835.80
2019-03-05T11:33:44.594Z,99825.63
2019-03-05T11:36:13.496Z,99837.66
2019-03-05T11:38:42.526Z,99830.56
2019-03-05T11:41:11.528Z,99824.66
2019-03-05T11:43:40.722Z,99825.78
2019-03-05T11:46:12.337Z,99825.34
2019-03-05T11:48:41.296Z,99821.48
2019-03-05T11:51:10.537Z,99829.73
2019-03-05T11:53:39.161Z,99837.31
2019-03-05T11:56:08.044Z,99844.47
2019-03-05T11:58:36.615Z,99845.52
2019-03-05T12:01:10.578Z,99847.52
2019-03-05T12:03:39.146Z,99855.59
2019-03-05T12:06:07.937Z,99852.34
2019-03-05T12:08:36.538Z,99862.16
2019-03-05T12:11:05.929Z,99862.48
2019-03-05T12:13:34.444Z,99851.91
2019-03-05T12:16:03.413Z,99860.42
2019-03-05T12:18:32.675Z,99852.53
2019-03-05T12:21:01.184Z,99861.34
2019-03-05T12:23:30.020Z,99862.13
2019-03-05T12:25:58.626Z,99869.64
2019-03-05T12:28:27.434Z,99865.26
2019-03-05T12:30:55.993Z,99879.14
2019-03-05T12:33:24.814Z,99869.11
2019-03-05T12:35:53.497Z,99876.84
2019-03-05T12:38:22.104Z,99882.11
2019-03-05T12:40:50.523Z,99870.25
2019-03-05T12:43:19.404Z,99873.66
2019-03-05T12:45:48.188Z,99893.36
2019-03-05T12:48:16.906Z,99874.23
2019-03-05T12:50:45.507Z,99875.81
2019-03-05T12:53:16.078Z,99861.16
2019-03-05T12:55:45.240Z,99873.36
2019-03-05T12:58:13.944Z,99866.91
2019-03-05T13:00:42.793Z,99865.54
2019-03-05T13:03:11.655Z,99872.77
2019-03-05T13:05:40.319Z,99876.82
2019-03-05T13:08:09.088Z,99879.69
2019-03-05T13:10:37.824Z,99891.02
2019-03-05T13:13:06.497Z,99900.84
2019-03-05T13:15:40.625Z,99909.72
2019-03-05T13:18:09.515Z,99905.27
2019-03-05T13:20:38.283Z,99901.02
2019-03-05T13:23:09.679Z,99907.41
2019-03-05T13:25:38.456Z,99908.08
2019-03-05T13:28:07.351Z,99907.59
2019-03-05T13:30:36.223Z,99908.41
2019-03-05T13:33:05.003Z,99902.92
2019-03-05T13:35:34.107Z,99890.94
2019-03-05T13:38:07.676Z,99898.55
2019-03-05T13:40:38.470Z,99901.87
2019-03-05T13:43:07.549Z,99902.16
2019-03-05T13:45:36.160Z,99904.63
2019-03-05T13:48:30.216Z,99913.92
2019-03-05T13:51:36.463Z,99918.20
2019-03-05T13:54:32.945Z,99916.89
2019-03-05T13:57:19.574Z,99926.23
2019-03-05T13:59:49.708Z,99928.22
2019-03-05T14:02:24.742Z,99922.11
2019-03-05T14:05:17.845Z,99923.72
2019-03-05T14:08:15.431Z,99917.28
2019-03-05T14:10:43.900Z,99913.16
2019-03-05T14:13:12.804Z,99905.02
2019-03-05T14:15:43.117Z,99904.93
2019-03-05T14:18:11.969Z,99917.83
2019-03-05T14:20:41.005Z,99918.81
2019-03-05T14:23:09.683Z,99912.63
2019-03-05T14:25:38.937Z,99919.67
2019-03-05T14:28:07.767Z,99917.56
2019-03-05T14:30:37.202Z,99929.09
2019-03-05T14:33:05.904Z,99935.70
2019-03-05T14:35:34.983Z,99933.48
2019-03-05T14:38:03.639Z,99948.97
2019-03-05T14:40:32.889Z,99945.01
2019-03-05T14:43:02.575Z,99938.16
2019-03-05T14:45:33.288Z,99944.58
2019-03-05T14:48:04.254Z,99951.22
2019-03-05T14:50:33.056Z,99956.49
2019-03-05T14:53:02.310Z,99947.23
2019-03-05T14:55:30.785Z,99953.81
2019-03-05T14:57:59.584Z,99974.09
2019-03-05T15:00:28.973Z,99969.59
2019-03-05T15:02:58.461Z,99972.28
2019-03-05T15:05:27.761Z,99974.70
2019-03-05T15:07:56.398Z,99976.63
2019-03-05T15:10:24.839Z,99977.73
2019-03-05T15:12:53.481Z,99975.30
2019-03-05T15:15:24.970Z,99979.41
2019-03-05T15:17:54.255Z,99973.95
2019-03-05T15:20:22.691Z,99978.81
2019-03-05T15:22:51.335Z,99970.47
2019-03-05T15:25:20.216Z,99982.20
2019-03-05T15:27:49.455Z,99982.94
2019-03-05T15:30:20.888Z,99976.66
2019-03-05T15:32:49.585Z,99982.52
2019-03-05T15:35:18.283Z,99978.67
2019-03-05T15:37:47.609Z,99972.79
2019-03-05T15:40:17.315Z,99976.96
2019-03-05T15:42:46.396Z,99983.97
2019-03-05T15:45:24.980Z,99971.95
2019-03-05T15:47:53.676Z,99977.41
2019-03-05T15:50:31.520Z,99981.75
2019-03-05T15:53:00.229Z,99979.78
2019-03-05T15:55:28.914Z,99977.34
2019-03-05T15:57:57.398Z,99982.94
2019-03-05T16:00:31.488Z,99974.80
2019-03-05T16:03:01.192Z,99984.82
2019-03-05T16:05:29.909Z,99990.12
2019-03-05T16:08:01.143Z,99987.74
2019-03-05T16:10:29.829Z,99989.52
2019-03-05T16:12:58.514Z,100004.83
2019-03-05T16:15:27.087Z,100010.97
2019-03-05T16:17:55.663Z,100011.78
2019-03-05T16:22:56.651Z,100017.63
2019-03-05T16:25:25.388Z,100020.30
2019-03-05T16:27:54.014Z,100020.50
2019-03-05T16:30:47.380Z,100028.36
2019-03-05T16:33:24.198Z,100034.16
2019-03-05T16:36:13.053Z,100045.36
2019-03-05T16:38:51.212Z,100049.98
2019-03-05T16:41:22.206Z,100054.05
2019-03-05T16:43:58.292Z,100054.56
2019-03-05T16:46:31.618Z,100057.53
2019-03-05T16:48:18.816Z,100013.28
2019-03-05T16:49:07.748Z,100066.64
2019-03-05T16:51:38.175Z,100060.31
2019-03-05T16:54:15.184Z,100073.63
2019-03-05T16:56:51.879Z,100073.36
2019-03-05T16:59:25.695Z,100072.89
2019-03-05T17:02:08.262Z,100074.10
2019-03-05T17:04:44.324Z,100072.04
2019-03-05T17:07:30.775Z,100066.91
2019-03-05T17:10:01.966Z,100070.49
2019-03-05T17:12:30.531Z,100074.44
2019-03-05T17:14:59.546Z,100075.13
2019-03-05T17:17:28.232Z,100081.89
2019-03-05T17:19:57.048Z,100085.48
2019-03-05T17:22:25.579Z,100082.36
2019-03-05T17:24:54.496Z,100082.86
2019-03-05T17:27:23.295Z,100086.16
2019-03-05T17:29:51.984Z,100091.26
2019-03-05T17:32:20.817Z,100099.72
2019-03-05T17:34:49.729Z,100104.64
2019-03-05T17:37:18.535Z,100102.30
2019-03-05T17:39:47.592Z,100106.75
2019-03-05T17:42:16.840Z,100107.81
2019-03-05T17:44:45.816Z,100110.98
2019-03-05T17:47:14.984Z,100110.50
2019-03-05T17:49:43.421Z,100118.02
2019-03-05T17:52:12.587Z,100129.95
2019-03-05T17:54:41.380Z,100136.50
2019-03-05T17:57:10.541Z,100140.11
2019-03-05T17:59:39.767Z,100144.73
2019-03-05T18:02:08.963Z,100150.54
2019-03-05T18:04:37.647Z,100149.56
2019-03-05T18:07:06.899Z,100154.35
2019-03-05T18:09:36.240Z,100160.18
2019-03-05T18:12:05.332Z,100159.70
2019-03-05T18:14:34.190Z,100164.13
2019-03-05T18:17:02.655Z,100164.77
2019-03-05T18:19:31.151Z,100167.73
2019-03-05T18:21:59.677Z,100168.71
2019-03-05T18:24:28.277Z,100177.91
2019-03-05T18:26:56.844Z,100183.05
2019-03-05T18:29:25.454Z,100189.49
2019-03-05T18:31:53.913Z,100197.11
2019-03-05T18:34:22.420Z,100199.98
2019-03-05T18:36:51.284Z,100200.88
2019-03-05T18:39:20.486Z,100200.09
2019-03-05T18:41:49.778Z,100207.61
2019-03-05T18:44:18.447Z,100209.45
2019-03-05T18:46:46.968Z,100212.93
2019-03-05T18:49:15.432Z,100208.80
2019-03-05T18:51:44.017Z,100211.15
2019-03-05T18:54:12.656Z,100215.05
2019-03-05T18:56:41.261Z,100222.19
2019-03-05T18:59:09.876Z,100220.34
2019-03-05T19:01:38.420Z,100213.58
2019-03-05T19:04:07.309Z,100225.74
2019-03-05T19:06:36.219Z,100219.56
2019-03-05T19:09:06.580Z,100228.28
2019-03-05T19:11:35.812Z,100227.16
2019-03-05T19:14:04.626Z,100232.46
2019-03-05T19:16:33.064Z,100234.39
2019-03-05T19:19:01.750Z,100231.85
2019-03-05T19:21:30.479Z,100230.77
2019-03-05T19:23:59.188Z,100230.77
2019-03-05T19:26:27.832Z,100233.02
2019-03-05T19:28:56.495Z,100233.04
2019-03-05T19:31:25.328Z,100236.86
2019-03-05T19:33:54.217Z,100231.23
2019-03-05T19:36:22.819Z,100231.19
2019-03-05T19:38:51.500Z,100240.13
2019-03-05T19:41:20.296Z,100242.25
2019-03-05T19:43:49.004Z,100249.47
2019-03-05T19:46:17.563Z,100250.67
2019-03-05T19:48:46.643Z,100250.80
2019-03-05T19:51:15.347Z,100258.53
2019-03-05T19:53:44.320Z,100255.41
2019-03-05T19:56:13.003Z,100259.20
2019-03-05T19:58:41.475Z,100269.16
2019-03-05T20:01:17.618Z,100261.59
2019-03-05T20:03:46.412Z,100267.84
2019-03-05T20:06:15.393Z,100265.87
2019-03-05T20:08:44.241Z,100268.61
2019-03-05T20:11:13.028Z,100270.38
2019-03-05T20:13:41.873Z,100277.07
2019-03-05T20:16:10.709Z,100268.73
2019-03-05T20:18:39.657Z,100271.79
2019-03-05T20:21:08.708Z,100270.73
2019-03-05T20:23:37.460Z,100272.33
2019-03-05T20:26:06.348Z,100257.56
2019-03-05T20:28:35.919Z,100258.55
2019-03-05T20:31:04.897Z,100260.87
2019-03-05T20:33:33.787Z,100262.05
2019-03-05T20:36:02.713Z,100270.09
2019-03-05T20:38:31.134Z,100275.63
2019-03-05T20:40:59.775Z,100278.77
2019-03-05T20:43:28.576Z,100272.61
2019-03-05T20:46:03.320Z,100260.38
2019-03-05T20:48:32.187Z,100270.75
2019-03-05T20:51:00.961Z,100269.86
2019-03-05T20:53:29.770Z,100269.80
2019-03-05T20:55:58.644Z,100264.53
2019-03-05T20:58:27.338Z,100262.61
2019-03-05T21:00:55.912Z,100274.78
2019-03-05T21:03:25.297Z,100276.09
2019-03-05T21:05:54.616Z,100269.92
2019-03-05T21:08:23.296Z,100266.38
2019-03-05T21:10:52.562Z,100274.70
2019-03-05T21:13:21.795Z,100273.40
2019-03-05T21:15:50.956Z,100281.59
2019-03-05T21:18:20.318Z,100269.53
2019-03-05T21:20:49.361Z,100281.59
2019-03-05T21:23:18.619Z,100275.91
2019-03-05T21:25:47.810Z,100285.26
2019-03-05T21:28:16.293Z,100281.41
2019-03-05T21:30:45.071Z,100277.16
2019-03-05T21:33:13.638Z,100276.73
2019-03-05T21:35:43.218Z,100277.34
2019-03-05T21:38:12.549Z,100277.04
2019-03-05T21:40:41.765Z,100273.81
2019-03-05T21:43:10.980Z,100266.61
2019-03-05T21:45:44.820Z,100265.91
2019-03-05T21:48:14.108Z,100265.91
2019-03-05T21:50:43.476Z,100263.87
2019-03-05T21:53:12.824Z,100250.99
2019-03-05T21:55:42.203Z,100260.63
2019-03-05T21:58:11.694Z,100263.09
2019-03-05T22:00:41.924Z,100270.56
2019-03-05T22:03:10.588Z,100277.23
2019-03-05T22:05:39.972Z,100274.11
2019-03-05T22:08:09.617Z,100272.17
2019-03-05T22:10:38.622Z,100264.95
2019-03-05T22:13:07.941Z,100259.95
2019-03-05T22:15:37.884Z,100269.56
2019-03-05T22:18:06.408Z,100272.13
2019-03-05T22:20:35.416Z,100272.22
2019-03-05T22:23:04.728Z,100272.36
2019-03-05T22:25:33.252Z,100274.21
2019-03-05T22:28:02.050Z,100269.61
2019-03-05T22:30:33.200Z,100269.34
2019-03-05T22:33:02.191Z,100263.61
2019-03-05T22:35:30.878Z,100265.61
2019-03-05T22:37:59.758Z,100266.99
2019-03-05T22:40:29.281Z,100269.61
2019-03-05T22:42:57.942Z,100270.70
2019-03-05T22:45:29.907Z,100271.82
2019-03-05T22:47:59.168Z,100269.24
2019-03-05T22:50:27.974Z,100264.30
2019-03-05T22:52:56.546Z,100263.86
2019-03-05T22:55:25.032Z,100259.30
2019-03-05T22:57:54.147Z,100259.86
2019-03-05T23:01:05.506Z,100260.45
2019-03-05T23:03:34.734Z,100251.88
2019-03-05T23:06:06.457Z,100251.94
2019-03-05T23:08:35.292Z,100257.81
2019-03-05T23:11:04.135Z,100254.65
2019-03-05T23:13:34.395Z,100252.53
2019-03-05T23:16:03.665Z,100255.89
2019-03-05T23:18:32.882Z,100247.37
2019-03-05T23:21:01.893Z,100248.48
2019-03-05T23:23:30.578Z,100247.27
2019-03-05T23:25:59.952Z,100244.38
2019-03-05T23:28:28.749Z,100241.27
2019-03-05T23:30:57.531Z,100239.17
2019-03-05T23:33:26.643Z,100248.59
2019-03-05T23:35:55.822Z,100239.91
2019-03-05T23:38:24.947Z,100237.03
2019-03-05T23:40:53.493Z,100237.94
2019-03-05T23:43:22.420Z,100234.02
2019-03-05T23:45:51.431Z,100237.49
2019-03-05T23:48:20.617Z,100233.06
2019-03-05T23:50:49.770Z,100232.40
2019-03-05T23:53:18.996Z,100228.88
2019-03-05T23:55:48.090Z,100228.88
2019-03-05T23:58:17.306Z,100230.02
